Estación de Yerbas Buenas 2
Ultimos registro cada 15 minutos 83
| N° | Estación | Fecha / Hora | Temperatura | Humedad | Lluvia | Velocidad | Dirección | Radiación | Presion |
| 83 | Yerbas Buenas 2 | 01-09-2026 20:30 | 15,9 | 74,4 | 0 | 0,7 | 187 | 0,6 | 1000,3 |
| 82 | Yerbas Buenas 2 | 01-09-2026 20:15 | 16,3 | 74 | 0 | 0,3 | 202 | 0,6 | 1000,3 |
| 81 | Yerbas Buenas 2 | 01-09-2026 20:00 | 16,1 | 74,9 | 0 | 0,3 | 208 | 0,6 | 1000 |
| 80 | Yerbas Buenas 2 | 01-09-2026 19:45 | 16,1 | 75,4 | 0 | 0,7 | 138 | 0,6 | 999,8 |
| 79 | Yerbas Buenas 2 | 01-09-2026 19:30 | 16,3 | 76,5 | 0 | 0,3 | 129 | 0,6 | 999,7 |
| 78 | Yerbas Buenas 2 | 01-09-2026 19:15 | 16,2 | 78,4 | 0 | 0 | 128 | 0,6 | 999,5 |
| 77 | Yerbas Buenas 2 | 01-09-2026 19:00 | 16,3 | 74,8 | 0 | 0 | 128 | 0,6 | 999,4 |
| 76 | Yerbas Buenas 2 | 01-09-2026 18:45 | 16,9 | 71,4 | 0 | 0 | 128 | 0,6 | 999,6 |
| 75 | Yerbas Buenas 2 | 01-09-2026 18:30 | 17,6 | 69,8 | 0 | 0 | 128 | 0,6 | 999,8 |
| 74 | Yerbas Buenas 2 | 01-09-2026 18:15 | 17,9 | 66,3 | 0 | 0 | 128 | 5,6 | 999,6 |
| 73 | Yerbas Buenas 2 | 01-09-2026 18:00 | 17,8 | 70,9 | 0 | 0 | 187 | 18,1 | 999,5 |
| 72 | Yerbas Buenas 2 | 01-09-2026 17:45 | 18,2 | 67,9 | 0 | 0 | 257 | 41,9 | 999,6 |
| 71 | Yerbas Buenas 2 | 01-09-2026 17:30 | 18,9 | 61,6 | 0 | 0 | 257 | 50,6 | 999,6 |
| 70 | Yerbas Buenas 2 | 01-09-2026 17:15 | 19,7 | 59,8 | 0 | 0 | 183 | 71,9 | 999,8 |
| 69 | Yerbas Buenas 2 | 01-09-2026 17:00 | 20,1 | 54,7 | 0 | 0 | 345 | 106,9 | 999,7 |
| 68 | Yerbas Buenas 2 | 01-09-2026 16:45 | 20,5 | 50,7 | 0 | 0 | 25 | 136,9 | 999,5 |
| 67 | Yerbas Buenas 2 | 01-09-2026 16:30 | 20,9 | 48,6 | 0 | 0,3 | 227 | 168,1 | 999,3 |
| 66 | Yerbas Buenas 2 | 01-09-2026 16:15 | 20,6 | 53,7 | 0 | 1 | 286 | 203,1 | 999,4 |
| 65 | Yerbas Buenas 2 | 01-09-2026 16:00 | 20,5 | 49,8 | 0 | 1 | 306 | 226,9 | 999,5 |
| 64 | Yerbas Buenas 2 | 01-09-2026 15:45 | 20,6 | 47,6 | 0 | 1 | 350 | 261,9 | 999,5 |
| 63 | Yerbas Buenas 2 | 01-09-2026 15:30 | 21 | 48,4 | 0 | 0,7 | 265 | 278,1 | 999,3 |
| 62 | Yerbas Buenas 2 | 01-09-2026 15:15 | 21 | 50,1 | 0 | 1 | 282 | 329,4 | 999,3 |
| 61 | Yerbas Buenas 2 | 01-09-2026 15:00 | 20,9 | 55,4 | 0 | 1,7 | 260 | 431,9 | 999,4 |
| 60 | Yerbas Buenas 2 | 01-09-2026 14:45 | 20,4 | 57,2 | 0 | 2 | 271 | 411,9 | 999,8 |
| 59 | Yerbas Buenas 2 | 01-09-2026 14:30 | 20,9 | 53,8 | 0 | 1 | 288 | 385,6 | 1000 |
| 58 | Yerbas Buenas 2 | 01-09-2026 14:15 | 21,2 | 54,3 | 0 | 0,7 | 302 | 476,9 | 999,9 |
| 57 | Yerbas Buenas 2 | 01-09-2026 14:00 | 21,9 | 48,4 | 0 | 0,7 | 38 | 489,4 | 999,9 |
| 56 | Yerbas Buenas 2 | 01-09-2026 13:45 | 20,6 | 58,2 | 0 | 0,7 | 232 | 545,6 | 1000,3 |
| 55 | Yerbas Buenas 2 | 01-09-2026 13:30 | 20,4 | 56,4 | 0 | 0,7 | 256 | 718,1 | 1000,7 |
| 54 | Yerbas Buenas 2 | 01-09-2026 13:15 | 20,2 | 53,4 | 0 | 0,3 | 281 | 761,9 | 1001 |
| 53 | Yerbas Buenas 2 | 01-09-2026 13:00 | 19,8 | 57,5 | 0 | 0,7 | 284 | 759,4 | 1001,3 |
| 52 | Yerbas Buenas 2 | 01-09-2026 12:45 | 19,8 | 56,8 | 0 | 0,3 | 286 | 356,9 | 1001,6 |
| 51 | Yerbas Buenas 2 | 01-09-2026 12:30 | 19,4 | 62 | 0 | 0,3 | 260 | 755,6 | 1002 |
| 50 | Yerbas Buenas 2 | 01-09-2026 12:15 | 18,5 | 65,4 | 0 | 0,7 | 292 | 740,6 | 1002,3 |
| 49 | Yerbas Buenas 2 | 01-09-2026 12:00 | 18,4 | 62,2 | 0 | 0,3 | 307 | 693,1 | 1002,7 |
| 48 | Yerbas Buenas 2 | 01-09-2026 11:45 | 18,2 | 61,3 | 0 | 0,3 | 271 | 700,6 | 1002,6 |
| 47 | Yerbas Buenas 2 | 01-09-2026 11:30 | 17,4 | 65,5 | 0 | 0,7 | 306 | 673,1 | 1002,6 |
| 46 | Yerbas Buenas 2 | 01-09-2026 11:15 | 17,2 | 66,4 | 0 | 0,3 | 302 | 651,9 | 1003 |
| 45 | Yerbas Buenas 2 | 01-09-2026 11:00 | 15,9 | 66,6 | 0 | 0,7 | 240 | 628,1 | 1003,3 |
| 44 | Yerbas Buenas 2 | 01-09-2026 10:45 | 15,8 | 72,5 | 0 | 0,3 | 264 | 600,6 | 1003,3 |
| 43 | Yerbas Buenas 2 | 01-09-2026 10:30 | 15,3 | 72,9 | 0 | 0,3 | 285 | 569,4 | 1003,5 |
| 42 | Yerbas Buenas 2 | 01-09-2026 10:15 | 14,8 | 76,5 | 0 | 0,3 | 284 | 534,4 | 1003,6 |
| 41 | Yerbas Buenas 2 | 01-09-2026 10:00 | 14,1 | 75,9 | 0 | 0,3 | 288 | 501,9 | 1003,8 |
| 40 | Yerbas Buenas 2 | 01-09-2026 09:45 | 14,3 | 73,2 | 0 | 0 | 317 | 459,4 | 1003,9 |
| 39 | Yerbas Buenas 2 | 01-09-2026 09:30 | 13,3 | 76,6 | 0 | 0 | 358 | 418,1 | 1003,9 |
| 38 | Yerbas Buenas 2 | 01-09-2026 09:15 | 12,7 | 80,6 | 0 | 0 | 358 | 373,1 | 1004 |
| 37 | Yerbas Buenas 2 | 01-09-2026 09:00 | 13,1 | 78,7 | 0 | 0 | 358 | 36,9 | 1004,1 |
| 36 | Yerbas Buenas 2 | 01-09-2026 08:45 | 11,3 | 84,8 | 0 | 0 | 358 | 239,4 | 1004 |
| 35 | Yerbas Buenas 2 | 01-09-2026 08:30 | 10,4 | 90,8 | 0 | 0 | 358 | 214,4 | 1004 |
| 34 | Yerbas Buenas 2 | 01-09-2026 08:15 | 8,8 | 96,5 | 0 | 0 | 358 | 205,6 | 1003,9 |
| 33 | Yerbas Buenas 2 | 01-09-2026 08:00 | 7 | 97,8 | 0 | 0 | 358 | 170,6 | 1003,8 |
| 32 | Yerbas Buenas 2 | 01-09-2026 07:45 | 6 | 97,8 | 0 | 0 | 358 | 90,6 | 1003,7 |
| 31 | Yerbas Buenas 2 | 01-09-2026 07:30 | 5,4 | 97,7 | 0 | 0 | 358 | 10,6 | 1003,4 |
| 30 | Yerbas Buenas 2 | 01-09-2026 07:15 | 5,5 | 97,2 | 0 | 0 | 358 | 5,6 | 1003,4 |
| 29 | Yerbas Buenas 2 | 01-09-2026 07:00 | 6 | 97,5 | 0 | 0 | 358 | 1,9 | 1003,5 |
| 28 | Yerbas Buenas 2 | 01-09-2026 06:45 | 5,9 | 97,3 | 0 | 0 | 358 | 0,6 | 1003,3 |
| 27 | Yerbas Buenas 2 | 01-09-2026 06:30 | 5,8 | 95,9 | 0 | 0 | 358 | 0,6 | 1003,2 |
| 26 | Yerbas Buenas 2 | 01-09-2026 06:15 | 6,3 | 96,6 | 0 | 0 | 358 | 0,6 | 1003,3 |
| 25 | Yerbas Buenas 2 | 01-09-2026 06:00 | 7 | 97,3 | 0 | 0 | 358 | 0,6 | 1003,3 |
| 24 | Yerbas Buenas 2 | 01-09-2026 05:45 | 7,4 | 97,6 | 0 | 0 | 333 | 0,6 | 1003,3 |
| 23 | Yerbas Buenas 2 | 01-09-2026 05:30 | 6,6 | 96,9 | 0 | 0 | 321 | 0,6 | 1003,3 |
| 22 | Yerbas Buenas 2 | 01-09-2026 05:15 | 6,9 | 96,9 | 0 | 0 | 321 | 0,6 | 1003,2 |
| 21 | Yerbas Buenas 2 | 01-09-2026 05:00 | 7,2 | 95,9 | 0 | 0 | 321 | 0,6 | 1003,2 |
| 20 | Yerbas Buenas 2 | 01-09-2026 04:45 | 7,7 | 96,2 | 0 | 0 | 321 | 0,6 | 1003,1 |
| 19 | Yerbas Buenas 2 | 01-09-2026 04:30 | 8,2 | 95,4 | 0 | 0 | 321 | 0,6 | 1003,2 |
| 18 | Yerbas Buenas 2 | 01-09-2026 04:15 | 8,3 | 95,4 | 0 | 0 | 321 | 0,6 | 1003,3 |
| 17 | Yerbas Buenas 2 | 01-09-2026 04:00 | 8,4 | 94,5 | 0 | 0 | 321 | 0,6 | 1003 |
| 16 | Yerbas Buenas 2 | 01-09-2026 03:45 | 8,6 | 94,3 | 0 | 0,3 | 331 | 0,6 | 1003,1 |
| 15 | Yerbas Buenas 2 | 01-09-2026 03:30 | 8,6 | 93,5 | 0 | 0 | 55 | 0,6 | 1003,1 |
| 14 | Yerbas Buenas 2 | 01-09-2026 03:15 | 8,7 | 93,4 | 0 | 0 | 55 | 0,6 | 1003,2 |
| 13 | Yerbas Buenas 2 | 01-09-2026 03:00 | 8,4 | 94,1 | 0 | 0 | 55 | 0,6 | 1003,2 |
| 12 | Yerbas Buenas 2 | 01-09-2026 02:45 | 8,1 | 94 | 0 | 0 | 55 | 0,6 | 1003,5 |
| 11 | Yerbas Buenas 2 | 01-09-2026 02:30 | 8,4 | 93,6 | 0 | 0 | 55 | 0,6 | 1003,7 |
| 10 | Yerbas Buenas 2 | 01-09-2026 02:15 | 8,7 | 92,3 | 0 | 0 | 55 | 0,6 | 1004 |
| 9 | Yerbas Buenas 2 | 01-09-2026 02:00 | 9,3 | 90,2 | 0 | 0 | 298 | 0,6 | 1003,8 |
| 8 | Yerbas Buenas 2 | 01-09-2026 01:45 | 9,5 | 89,9 | 0 | 0 | 279 | 0,6 | 1004,1 |
| 7 | Yerbas Buenas 2 | 01-09-2026 01:30 | 9,5 | 89,7 | 0 | 0 | 279 | 0,6 | 1004,2 |
| 6 | Yerbas Buenas 2 | 01-09-2026 01:15 | 9,4 | 91,3 | 0 | 0 | 279 | 0,6 | 1004,3 |
| 5 | Yerbas Buenas 2 | 01-09-2026 01:00 | 9,7 | 88,9 | 0 | 0 | 279 | 0,6 | 1004 |
| 4 | Yerbas Buenas 2 | 01-09-2026 00:45 | 9,4 | 91,1 | 0 | 0 | 279 | 0,6 | 1004 |
| 3 | Yerbas Buenas 2 | 01-09-2026 00:30 | 9,3 | 92,6 | 0 | 0 | 147 | 0,6 | 1004,1 |
| 2 | Yerbas Buenas 2 | 01-09-2026 00:15 | 9,2 | 91,6 | 0 | 0 | 143 | 0,6 | 1003,8 |
| 1 | Yerbas Buenas 2 | 01-09-2026 00:00 | 9,3 | 90,9 | 0 | 0 | 143 | 0,6 | 1004 |